sensor_id;sensor_type;location;lat;lon;timestamp;temperature;humidity
30473;DHT22;17263;48.160;11.452;2023-11-22T00:01:10;6.80;99.90
30473;DHT22;17263;48.160;11.452;2023-11-22T00:03:36;6.80;99.90
30473;DHT22;17263;48.160;11.452;2023-11-22T00:06:03;6.90;99.90
30473;DHT22;17263;48.160;11.452;2023-11-22T00:08:29;6.90;99.90
30473;DHT22;17263;48.160;11.452;2023-11-22T00:10:55;6.90;99.90
30473;DHT22;17263;48.160;11.452;2023-11-22T00:13:21;6.90;99.90
30473;DHT22;17263;48.160;11.452;2023-11-22T00:15:47;6.80;99.90
30473;DHT22;17263;48.160;11.452;2023-11-22T00:18:15;6.90;99.90
30473;DHT22;17263;48.160;11.452;2023-11-22T00:20:41;6.90;99.90
30473;DHT22;17263;48.160;11.452;2023-11-22T00:23:07;6.90;99.90
30473;DHT22;17263;48.160;11.452;2023-11-22T00:25:33;6.90;99.90
30473;DHT22;17263;48.160;11.452;2023-11-22T00:28:00;6.90;99.90
30473;DHT22;17263;48.160;11.452;2023-11-22T00:30:26;6.90;99.90
30473;DHT22;17263;48.160;11.452;2023-11-22T00:32:52;6.90;99.90
30473;DHT22;17263;48.160;11.452;2023-11-22T00:35:18;6.90;99.90
30473;DHT22;17263;48.160;11.452;2023-11-22T00:37:44;6.90;99.90
30473;DHT22;17263;48.160;11.452;2023-11-22T00:40:10;6.90;99.90
30473;DHT22;17263;48.160;11.452;2023-11-22T00:42:37;6.90;99.90
30473;DHT22;17263;48.160;11.452;2023-11-22T00:45:06;6.90;99.90
30473;DHT22;17263;48.160;11.452;2023-11-22T00:47:33;6.90;99.90
30473;DHT22;17263;48.160;11.452;2023-11-22T00:49:59;6.90;99.90
30473;DHT22;17263;48.160;11.452;2023-11-22T00:52:25;6.90;99.90
30473;DHT22;17263;48.160;11.452;2023-11-22T00:54:51;6.90;99.90
30473;DHT22;17263;48.160;11.452;2023-11-22T00:57:17;6.90;99.90
30473;DHT22;17263;48.160;11.452;2023-11-22T00:59:43;6.90;99.90
30473;DHT22;17263;48.160;11.452;2023-11-22T01:02:09;6.90;99.90
30473;DHT22;17263;48.160;11.452;2023-11-22T01:04:35;7.00;99.90
30473;DHT22;17263;48.160;11.452;2023-11-22T01:07:03;7.00;99.90
30473;DHT22;17263;48.160;11.452;2023-11-22T01:09:33;7.00;99.90
30473;DHT22;17263;48.160;11.452;2023-11-22T01:11:59;7.00;99.90
30473;DHT22;17263;48.160;11.452;2023-11-22T01:14:26;7.00;99.90
30473;DHT22;17263;48.160;11.452;2023-11-22T01:16:52;7.00;99.90
30473;DHT22;17263;48.160;11.452;2023-11-22T01:19:18;7.00;99.90
30473;DHT22;17263;48.160;11.452;2023-11-22T01:21:44;7.00;99.90
30473;DHT22;17263;48.160;11.452;2023-11-22T01:24:10;7.00;99.90
30473;DHT22;17263;48.160;11.452;2023-11-22T01:26:37;7.00;99.90
30473;DHT22;17263;48.160;11.452;2023-11-22T01:29:04;7.00;99.90
30473;DHT22;17263;48.160;11.452;2023-11-22T01:31:31;7.00;99.90
30473;DHT22;17263;48.160;11.452;2023-11-22T01:33:59;7.00;99.90
30473;DHT22;17263;48.160;11.452;2023-11-22T01:36:26;6.90;99.90
30473;DHT22;17263;48.160;11.452;2023-11-22T01:38:53;7.00;99.90
30473;DHT22;17263;48.160;11.452;2023-11-22T01:41:19;7.00;99.90
30473;DHT22;17263;48.160;11.452;2023-11-22T01:43:45;7.00;99.90
30473;DHT22;17263;48.160;11.452;2023-11-22T01:46:21;7.00;99.90
30473;DHT22;17263;48.160;11.452;2023-11-22T01:48:48;7.00;99.90
30473;DHT22;17263;48.160;11.452;2023-11-22T01:51:15;7.00;99.90
30473;DHT22;17263;48.160;11.452;2023-11-22T01:53:41;7.00;99.90
30473;DHT22;17263;48.160;11.452;2023-11-22T01:56:08;7.00;99.90
30473;DHT22;17263;48.160;11.452;2023-11-22T01:58:35;7.00;99.90
30473;DHT22;17263;48.160;11.452;2023-11-22T02:01:01;7.00;99.90
30473;DHT22;17263;48.160;11.452;2023-11-22T02:03:28;7.00;99.90
30473;DHT22;17263;48.160;11.452;2023-11-22T02:05:55;7.10;99.90
30473;DHT22;17263;48.160;11.452;2023-11-22T02:08:21;7.00;99.90
30473;DHT22;17263;48.160;11.452;2023-11-22T02:10:57;7.00;99.90
30473;DHT22;17263;48.160;11.452;2023-11-22T02:13:23;6.90;99.90
30473;DHT22;17263;48.160;11.452;2023-11-22T02:15:49;6.90;99.90
30473;DHT22;17263;48.160;11.452;2023-11-22T02:18:15;6.80;99.90
30473;DHT22;17263;48.160;11.452;2023-11-22T02:20:42;6.80;99.90
30473;DHT22;17263;48.160;11.452;2023-11-22T02:23:09;6.60;99.90
30473;DHT22;17263;48.160;11.452;2023-11-22T02:25:35;6.40;99.90
30473;DHT22;17263;48.160;11.452;2023-11-22T02:28:01;6.20;99.90
30473;DHT22;17263;48.160;11.452;2023-11-22T02:30:28;6.10;99.90
30473;DHT22;17263;48.160;11.452;2023-11-22T02:32:54;5.90;99.90
30473;DHT22;17263;48.160;11.452;2023-11-22T02:35:20;5.80;99.90
30473;DHT22;17263;48.160;11.452;2023-11-22T02:37:46;5.80;99.90
30473;DHT22;17263;48.160;11.452;2023-11-22T02:40:21;5.60;99.90
30473;DHT22;17263;48.160;11.452;2023-11-22T02:42:52;5.50;99.90
30473;DHT22;17263;48.160;11.452;2023-11-22T02:45:21;5.30;99.90
30473;DHT22;17263;48.160;11.452;2023-11-22T02:47:50;5.30;99.90
30473;DHT22;17263;48.160;11.452;2023-11-22T02:50:16;5.20;99.90
30473;DHT22;17263;48.160;11.452;2023-11-22T02:52:43;5.10;99.90
30473;DHT22;17263;48.160;11.452;2023-11-22T02:55:09;5.10;99.90
30473;DHT22;17263;48.160;11.452;2023-11-22T02:57:36;5.10;99.90
30473;DHT22;17263;48.160;11.452;2023-11-22T03:00:04;5.00;99.90
30473;DHT22;17263;48.160;11.452;2023-11-22T03:02:30;4.90;99.90
30473;DHT22;17263;48.160;11.452;2023-11-22T03:04:58;4.90;99.90
30473;DHT22;17263;48.160;11.452;2023-11-22T03:07:26;4.90;99.90
30473;DHT22;17263;48.160;11.452;2023-11-22T03:09:53;4.90;99.90
30473;DHT22;17263;48.160;11.452;2023-11-22T03:12:19;4.70;99.90
30473;DHT22;17263;48.160;11.452;2023-11-22T03:14:49;4.70;99.90
30473;DHT22;17263;48.160;11.452;2023-11-22T03:17:15;4.70;99.90
30473;DHT22;17263;48.160;11.452;2023-11-22T03:19:41;4.60;99.90
30473;DHT22;17263;48.160;11.452;2023-11-22T03:22:07;4.60;99.90
30473;DHT22;17263;48.160;11.452;2023-11-22T03:24:33;4.60;99.90
30473;DHT22;17263;48.160;11.452;2023-11-22T03:27:04;4.60;99.90
30473;DHT22;17263;48.160;11.452;2023-11-22T03:29:30;4.60;99.90
30473;DHT22;17263;48.160;11.452;2023-11-22T03:31:56;4.60;99.90
30473;DHT22;17263;48.160;11.452;2023-11-22T03:34:22;4.60;99.90
30473;DHT22;17263;48.160;11.452;2023-11-22T03:36:48;4.60;99.90
30473;DHT22;17263;48.160;11.452;2023-11-22T03:39:16;4.50;99.90
30473;DHT22;17263;48.160;11.452;2023-11-22T03:41:42;4.50;99.90
30473;DHT22;17263;48.160;11.452;2023-11-22T03:44:08;4.50;99.90
30473;DHT22;17263;48.160;11.452;2023-11-22T03:46:38;4.50;99.90
30473;DHT22;17263;48.160;11.452;2023-11-22T03:49:05;4.50;99.90
30473;DHT22;17263;48.160;11.452;2023-11-22T03:51:35;4.50;99.90
30473;DHT22;17263;48.160;11.452;2023-11-22T03:54:02;4.50;99.90
30473;DHT22;17263;48.160;11.452;2023-11-22T03:56:29;4.40;99.90
30473;DHT22;17263;48.160;11.452;2023-11-22T03:58:55;4.40;99.90
30473;DHT22;17263;48.160;11.452;2023-11-22T04:01:22;4.40;99.90
30473;DHT22;17263;48.160;11.452;2023-11-22T04:03:48;4.40;99.90
30473;DHT22;17263;48.160;11.452;2023-11-22T04:06:18;4.40;99.90
30473;DHT22;17263;48.160;11.452;2023-11-22T04:08:45;4.40;99.90
30473;DHT22;17263;48.160;11.452;2023-11-22T04:11:15;4.50;99.90
30473;DHT22;17263;48.160;11.452;2023-11-22T04:13:42;4.50;99.90
30473;DHT22;17263;48.160;11.452;2023-11-22T04:16:08;4.50;99.90
30473;DHT22;17263;48.160;11.452;2023-11-22T04:18:41;4.50;99.90
30473;DHT22;17263;48.160;11.452;2023-11-22T04:21:07;4.50;99.90
30473;DHT22;17263;48.160;11.452;2023-11-22T04:23:34;4.50;99.90
30473;DHT22;17263;48.160;11.452;2023-11-22T04:26:02;4.60;99.90
30473;DHT22;17263;48.160;11.452;2023-11-22T04:28:28;4.70;99.90
30473;DHT22;17263;48.160;11.452;2023-11-22T04:30:56;4.70;99.90
30473;DHT22;17263;48.160;11.452;2023-11-22T04:33:25;4.60;99.90
30473;DHT22;17263;48.160;11.452;2023-11-22T04:35:54;4.70;99.90
30473;DHT22;17263;48.160;11.452;2023-11-22T04:38:20;4.60;99.90
30473;DHT22;17263;48.160;11.452;2023-11-22T04:40:46;4.50;99.90
30473;DHT22;17263;48.160;11.452;2023-11-22T04:43:12;4.50;99.90
30473;DHT22;17263;48.160;11.452;2023-11-22T04:45:38;4.50;99.90
30473;DHT22;17263;48.160;11.452;2023-11-22T04:48:05;4.50;99.90
30473;DHT22;17263;48.160;11.452;2023-11-22T04:50:32;4.50;99.90
30473;DHT22;17263;48.160;11.452;2023-11-22T04:52:59;4.50;99.90
30473;DHT22;17263;48.160;11.452;2023-11-22T04:55:27;4.50;99.90
30473;DHT22;17263;48.160;11.452;2023-11-22T04:57:54;4.40;99.90
30473;DHT22;17263;48.160;11.452;2023-11-22T05:00:23;4.40;99.90
30473;DHT22;17263;48.160;11.452;2023-11-22T05:02:49;4.40;99.90
30473;DHT22;17263;48.160;11.452;2023-11-22T05:05:15;4.40;99.90
30473;DHT22;17263;48.160;11.452;2023-11-22T05:07:42;4.40;99.90
30473;DHT22;17263;48.160;11.452;2023-11-22T05:10:10;4.40;99.90
30473;DHT22;17263;48.160;11.452;2023-11-22T05:12:36;4.40;99.90
30473;DHT22;17263;48.160;11.452;2023-11-22T05:15:02;4.40;99.90
30473;DHT22;17263;48.160;11.452;2023-11-22T05:17:28;4.30;99.90
30473;DHT22;17263;48.160;11.452;2023-11-22T05:19:55;4.30;99.90
30473;DHT22;17263;48.160;11.452;2023-11-22T05:22:21;4.30;99.90
30473;DHT22;17263;48.160;11.452;2023-11-22T05:24:47;4.30;99.90
30473;DHT22;17263;48.160;11.452;2023-11-22T05:27:13;4.20;99.90
30473;DHT22;17263;48.160;11.452;2023-11-22T05:29:39;4.20;99.90
30473;DHT22;17263;48.160;11.452;2023-11-22T05:32:05;4.20;99.90
30473;DHT22;17263;48.160;11.452;2023-11-22T05:34:32;4.20;99.90
30473;DHT22;17263;48.160;11.452;2023-11-22T05:36:58;4.10;99.90
30473;DHT22;17263;48.160;11.452;2023-11-22T05:39:24;4.10;99.90
30473;DHT22;17263;48.160;11.452;2023-11-22T05:41:52;4.10;99.90
30473;DHT22;17263;48.160;11.452;2023-11-22T05:44:18;4.20;99.90
30473;DHT22;17263;48.160;11.452;2023-11-22T05:46:44;4.20;99.90
30473;DHT22;17263;48.160;11.452;2023-11-22T05:49:10;4.20;99.90
30473;DHT22;17263;48.160;11.452;2023-11-22T05:51:36;4.10;99.90
30473;DHT22;17263;48.160;11.452;2023-11-22T05:54:06;4.10;99.90
30473;DHT22;17263;48.160;11.452;2023-11-22T05:56:32;4.00;99.90
30473;DHT22;17263;48.160;11.452;2023-11-22T05:58:58;4.10;99.90
30473;DHT22;17263;48.160;11.452;2023-11-22T06:01:26;4.10;99.90
30473;DHT22;17263;48.160;11.452;2023-11-22T06:03:54;4.00;99.90
30473;DHT22;17263;48.160;11.452;2023-11-22T06:06:20;4.00;99.90
30473;DHT22;17263;48.160;11.452;2023-11-22T06:08:49;4.00;99.90
30473;DHT22;17263;48.160;11.452;2023-11-22T06:11:15;4.00;99.90
30473;DHT22;17263;48.160;11.452;2023-11-22T06:13:42;4.00;99.90
30473;DHT22;17263;48.160;11.452;2023-11-22T06:16:13;4.10;99.90
30473;DHT22;17263;48.160;11.452;2023-11-22T06:18:39;4.10;99.90
30473;DHT22;17263;48.160;11.452;2023-11-22T06:21:07;4.00;99.90
30473;DHT22;17263;48.160;11.452;2023-11-22T06:23:33;4.10;99.90
30473;DHT22;17263;48.160;11.452;2023-11-22T06:25:59;4.10;99.90
30473;DHT22;17263;48.160;11.452;2023-11-22T06:28:25;4.00;99.90
30473;DHT22;17263;48.160;11.452;2023-11-22T06:30:51;4.00;99.90
30473;DHT22;17263;48.160;11.452;2023-11-22T06:33:17;4.00;99.90
30473;DHT22;17263;48.160;11.452;2023-11-22T06:35:43;4.00;99.90
30473;DHT22;17263;48.160;11.452;2023-11-22T06:38:09;4.00;99.90
30473;DHT22;17263;48.160;11.452;2023-11-22T06:40:35;4.00;99.90
30473;DHT22;17263;48.160;11.452;2023-11-22T06:43:02;4.00;99.90
30473;DHT22;17263;48.160;11.452;2023-11-22T06:45:30;4.00;99.90
30473;DHT22;17263;48.160;11.452;2023-11-22T06:47:59;3.90;99.90
30473;DHT22;17263;48.160;11.452;2023-11-22T06:50:25;3.90;99.90
30473;DHT22;17263;48.160;11.452;2023-11-22T06:52:51;4.00;99.90
30473;DHT22;17263;48.160;11.452;2023-11-22T06:55:19;3.90;99.90
30473;DHT22;17263;48.160;11.452;2023-11-22T06:57:46;4.00;99.90
30473;DHT22;17263;48.160;11.452;2023-11-22T07:00:12;4.00;99.90
30473;DHT22;17263;48.160;11.452;2023-11-22T07:02:39;3.90;99.90
30473;DHT22;17263;48.160;11.452;2023-11-22T07:05:07;4.00;99.90
30473;DHT22;17263;48.160;11.452;2023-11-22T07:07:36;4.00;99.90
30473;DHT22;17263;48.160;11.452;2023-11-22T07:10:03;4.10;99.90
30473;DHT22;17263;48.160;11.452;2023-11-22T07:12:34;4.10;99.90
30473;DHT22;17263;48.160;11.452;2023-11-22T07:15:01;4.20;99.90
30473;DHT22;17263;48.160;11.452;2023-11-22T07:17:29;4.20;99.90
30473;DHT22;17263;48.160;11.452;2023-11-22T07:19:55;4.20;99.90
30473;DHT22;17263;48.160;11.452;2023-11-22T07:22:21;4.10;99.90
30473;DHT22;17263;48.160;11.452;2023-11-22T07:24:50;4.00;99.90
30473;DHT22;17263;48.160;11.452;2023-11-22T07:27:26;4.00;99.90
30473;DHT22;17263;48.160;11.452;2023-11-22T07:29:54;4.00;99.90
30473;DHT22;17263;48.160;11.452;2023-11-22T07:32:20;4.00;99.90
30473;DHT22;17263;48.160;11.452;2023-11-22T07:34:46;4.00;99.90
30473;DHT22;17263;48.160;11.452;2023-11-22T07:37:13;4.00;99.90
30473;DHT22;17263;48.160;11.452;2023-11-22T07:39:40;4.10;99.90
30473;DHT22;17263;48.160;11.452;2023-11-22T07:42:08;4.10;99.90
30473;DHT22;17263;48.160;11.452;2023-11-22T07:44:35;4.10;99.90
30473;DHT22;17263;48.160;11.452;2023-11-22T07:47:04;4.10;99.90
30473;DHT22;17263;48.160;11.452;2023-11-22T07:49:33;4.10;99.90
30473;DHT22;17263;48.160;11.452;2023-11-22T07:52:03;4.20;99.90
30473;DHT22;17263;48.160;11.452;2023-11-22T07:54:30;4.20;99.90
30473;DHT22;17263;48.160;11.452;2023-11-22T07:56:56;4.20;99.90
30473;DHT22;17263;48.160;11.452;2023-11-22T07:59:23;4.10;99.90
30473;DHT22;17263;48.160;11.452;2023-11-22T08:01:49;3.90;99.90
30473;DHT22;17263;48.160;11.452;2023-11-22T08:04:15;3.90;99.90
30473;DHT22;17263;48.160;11.452;2023-11-22T08:06:44;3.90;99.90
30473;DHT22;17263;48.160;11.452;2023-11-22T08:09:11;4.10;99.90
30473;DHT22;17263;48.160;11.452;2023-11-22T08:11:37;4.00;99.90
30473;DHT22;17263;48.160;11.452;2023-11-22T08:14:03;4.00;99.90
30473;DHT22;17263;48.160;11.452;2023-11-22T08:16:29;4.00;99.90
30473;DHT22;17263;48.160;11.452;2023-11-22T08:18:55;4.00;99.90
30473;DHT22;17263;48.160;11.452;2023-11-22T08:21:23;4.00;99.90
30473;DHT22;17263;48.160;11.452;2023-11-22T08:23:49;4.00;99.90
30473;DHT22;17263;48.160;11.452;2023-11-22T08:26:16;3.90;99.90
30473;DHT22;17263;48.160;11.452;2023-11-22T08:28:42;3.90;99.90
30473;DHT22;17263;48.160;11.452;2023-11-22T08:31:08;3.80;99.90
30473;DHT22;17263;48.160;11.452;2023-11-22T08:33:38;3.70;99.90
30473;DHT22;17263;48.160;11.452;2023-11-22T08:36:08;3.70;99.90
30473;DHT22;17263;48.160;11.452;2023-11-22T08:38:37;3.60;99.90
30473;DHT22;17263;48.160;11.452;2023-11-22T08:41:07;3.50;99.90
30473;DHT22;17263;48.160;11.452;2023-11-22T08:43:33;3.50;99.90
30473;DHT22;17263;48.160;11.452;2023-11-22T08:46:00;3.60;99.90
30473;DHT22;17263;48.160;11.452;2023-11-22T08:48:26;3.80;99.90
30473;DHT22;17263;48.160;11.452;2023-11-22T08:50:54;3.90;99.90
30473;DHT22;17263;48.160;11.452;2023-11-22T08:53:21;3.90;99.90
30473;DHT22;17263;48.160;11.452;2023-11-22T08:55:47;4.00;99.90
30473;DHT22;17263;48.160;11.452;2023-11-22T08:58:13;3.90;99.90
30473;DHT22;17263;48.160;11.452;2023-11-22T09:00:40;3.90;99.90
30473;DHT22;17263;48.160;11.452;2023-11-22T09:03:08;3.90;99.90
30473;DHT22;17263;48.160;11.452;2023-11-22T09:05:34;3.90;99.90
30473;DHT22;17263;48.160;11.452;2023-11-22T09:08:00;3.90;99.90
30473;DHT22;17263;48.160;11.452;2023-11-22T09:10:26;3.90;99.90
30473;DHT22;17263;48.160;11.452;2023-11-22T09:12:52;3.90;99.90
30473;DHT22;17263;48.160;11.452;2023-11-22T09:15:18;3.90;99.90
30473;DHT22;17263;48.160;11.452;2023-11-22T09:17:52;3.90;99.90
30473;DHT22;17263;48.160;11.452;2023-11-22T09:20:19;3.90;99.90
30473;DHT22;17263;48.160;11.452;2023-11-22T09:22:53;3.90;99.90
30473;DHT22;17263;48.160;11.452;2023-11-22T09:25:26;3.90;99.90
30473;DHT22;17263;48.160;11.452;2023-11-22T09:27:57;4.00;99.90
30473;DHT22;17263;48.160;11.452;2023-11-22T09:30:28;4.00;99.90
30473;DHT22;17263;48.160;11.452;2023-11-22T09:33:13;4.10;99.90
30473;DHT22;17263;48.160;11.452;2023-11-22T09:35:45;4.10;99.90
30473;DHT22;17263;48.160;11.452;2023-11-22T09:38:12;4.10;99.90
30473;DHT22;17263;48.160;11.452;2023-11-22T09:43:12;4.20;99.90
30473;DHT22;17263;48.160;11.452;2023-11-22T09:45:44;4.20;99.90
30473;DHT22;17263;48.160;11.452;2023-11-22T09:48:18;4.20;99.90
30473;DHT22;17263;48.160;11.452;2023-11-22T09:56:11;4.20;99.90
30473;DHT22;17263;48.160;11.452;2023-11-22T09:58:41;4.10;99.90
30473;DHT22;17263;48.160;11.452;2023-11-22T10:01:13;4.10;99.90
30473;DHT22;17263;48.160;11.452;2023-11-22T10:03:40;4.10;99.90
30473;DHT22;17263;48.160;11.452;2023-11-22T10:06:06;4.10;99.90
30473;DHT22;17263;48.160;11.452;2023-11-22T10:08:33;4.00;99.90
30473;DHT22;17263;48.160;11.452;2023-11-22T10:10:59;4.10;99.90
30473;DHT22;17263;48.160;11.452;2023-11-22T10:13:26;4.10;99.90
30473;DHT22;17263;48.160;11.452;2023-11-22T10:15:52;4.10;99.90
30473;DHT22;17263;48.160;11.452;2023-11-22T10:18:19;4.10;99.90
30473;DHT22;17263;48.160;11.452;2023-11-22T10:20:47;4.20;99.90
30473;DHT22;17263;48.160;11.452;2023-11-22T10:23:18;4.20;99.90
30473;DHT22;17263;48.160;11.452;2023-11-22T10:25:49;4.20;99.90
30473;DHT22;17263;48.160;11.452;2023-11-22T10:28:21;4.20;99.90
30473;DHT22;17263;48.160;11.452;2023-11-22T10:30:48;4.30;99.90
30473;DHT22;17263;48.160;11.452;2023-11-22T10:33:15;4.20;99.90
30473;DHT22;17263;48.160;11.452;2023-11-22T10:35:46;4.30;99.90
30473;DHT22;17263;48.160;11.452;2023-11-22T10:38:16;4.20;99.90
30473;DHT22;17263;48.160;11.452;2023-11-22T10:40:42;4.30;99.90
30473;DHT22;17263;48.160;11.452;2023-11-22T10:43:14;4.40;99.90
30473;DHT22;17263;48.160;11.452;2023-11-22T10:45:44;4.50;99.90
30473;DHT22;17263;48.160;11.452;2023-11-22T10:48:15;4.40;99.90
30473;DHT22;17263;48.160;11.452;2023-11-22T10:50:44;4.50;99.90
30473;DHT22;17263;48.160;11.452;2023-11-22T10:53:16;4.60;99.90
30473;DHT22;17263;48.160;11.452;2023-11-22T10:55:46;4.60;99.90
30473;DHT22;17263;48.160;11.452;2023-11-22T10:58:15;4.60;99.90
30473;DHT22;17263;48.160;11.452;2023-11-22T11:00:42;4.60;99.90
30473;DHT22;17263;48.160;11.452;2023-11-22T11:03:18;4.60;99.90
30473;DHT22;17263;48.160;11.452;2023-11-22T11:05:52;4.60;99.90
30473;DHT22;17263;48.160;11.452;2023-11-22T11:08:21;4.60;99.90
30473;DHT22;17263;48.160;11.452;2023-11-22T11:10:49;4.70;99.90
30473;DHT22;17263;48.160;11.452;2023-11-22T11:13:15;4.70;99.90
30473;DHT22;17263;48.160;11.452;2023-11-22T11:15:42;4.80;99.90
30473;DHT22;17263;48.160;11.452;2023-11-22T11:18:15;4.80;99.90
30473;DHT22;17263;48.160;11.452;2023-11-22T11:21:07;4.80;99.90
30473;DHT22;17263;48.160;11.452;2023-11-22T11:23:33;4.70;99.90
30473;DHT22;17263;48.160;11.452;2023-11-22T11:26:09;4.60;99.90
30473;DHT22;17263;48.160;11.452;2023-11-22T11:28:46;4.60;99.90
30473;DHT22;17263;48.160;11.452;2023-11-22T11:31:16;4.60;99.90
30473;DHT22;17263;48.160;11.452;2023-11-22T11:36:31;4.60;99.90
30473;DHT22;17263;48.160;11.452;2023-11-22T11:39:02;4.60;99.90
30473;DHT22;17263;48.160;11.452;2023-11-22T11:41:32;4.50;99.90
30473;DHT22;17263;48.160;11.452;2023-11-22T11:44:01;4.50;99.90
30473;DHT22;17263;48.160;11.452;2023-11-22T11:46:29;4.50;99.90
30473;DHT22;17263;48.160;11.452;2023-11-22T11:48:56;4.60;99.90
30473;DHT22;17263;48.160;11.452;2023-11-22T11:51:23;4.60;99.90
30473;DHT22;17263;48.160;11.452;2023-11-22T11:53:50;4.70;99.90
30473;DHT22;17263;48.160;11.452;2023-11-22T11:56:17;4.60;99.90
30473;DHT22;17263;48.160;11.452;2023-11-22T11:58:47;4.70;99.90
30473;DHT22;17263;48.160;11.452;2023-11-22T12:01:14;4.70;99.90
30473;DHT22;17263;48.160;11.452;2023-11-22T12:03:45;4.60;99.90
30473;DHT22;17263;48.160;11.452;2023-11-22T12:06:16;4.60;99.90
30473;DHT22;17263;48.160;11.452;2023-11-22T12:08:46;4.60;99.90
30473;DHT22;17263;48.160;11.452;2023-11-22T12:11:14;4.60;99.90
30473;DHT22;17263;48.160;11.452;2023-11-22T12:13:41;4.60;99.90
30473;DHT22;17263;48.160;11.452;2023-11-22T12:16:15;4.60;99.90
30473;DHT22;17263;48.160;11.452;2023-11-22T12:18:48;4.70;99.90
30473;DHT22;17263;48.160;11.452;2023-11-22T12:21:16;4.70;99.90
30473;DHT22;17263;48.160;11.452;2023-11-22T12:23:44;4.70;99.90
30473;DHT22;17263;48.160;11.452;2023-11-22T12:26:12;4.60;99.90
30473;DHT22;17263;48.160;11.452;2023-11-22T12:28:40;4.60;99.90
30473;DHT22;17263;48.160;11.452;2023-11-22T12:31:10;4.70;99.90
30473;DHT22;17263;48.160;11.452;2023-11-22T12:33:37;4.70;99.90
30473;DHT22;17263;48.160;11.452;2023-11-22T12:36:04;4.70;99.90
30473;DHT22;17263;48.160;11.452;2023-11-22T12:38:30;4.80;99.90
30473;DHT22;17263;48.160;11.452;2023-11-22T12:40:59;4.80;99.90
30473;DHT22;17263;48.160;11.452;2023-11-22T12:43:27;4.70;99.90
30473;DHT22;17263;48.160;11.452;2023-11-22T12:46:07;4.60;99.90
30473;DHT22;17263;48.160;11.452;2023-11-22T12:48:34;4.60;99.90
30473;DHT22;17263;48.160;11.452;2023-11-22T12:51:01;4.60;99.90
30473;DHT22;17263;48.160;11.452;2023-11-22T12:53:27;4.60;99.90
30473;DHT22;17263;48.160;11.452;2023-11-22T12:55:55;4.70;99.90
30473;DHT22;17263;48.160;11.452;2023-11-22T12:58:23;4.70;99.90
30473;DHT22;17263;48.160;11.452;2023-11-22T13:00:51;4.80;99.90
30473;DHT22;17263;48.160;11.452;2023-11-22T13:03:24;4.70;99.90
30473;DHT22;17263;48.160;11.452;2023-11-22T13:05:51;4.60;99.90
30473;DHT22;17263;48.160;11.452;2023-11-22T13:08:18;4.60;99.90
30473;DHT22;17263;48.160;11.452;2023-11-22T13:10:45;4.70;99.90
30473;DHT22;17263;48.160;11.452;2023-11-22T13:13:13;4.60;99.90
30473;DHT22;17263;48.160;11.452;2023-11-22T13:15:39;4.60;99.90
30473;DHT22;17263;48.160;11.452;2023-11-22T13:18:06;4.60;99.90
30473;DHT22;17263;48.160;11.452;2023-11-22T13:20:34;4.60;99.90
30473;DHT22;17263;48.160;11.452;2023-11-22T13:23:01;4.70;99.90
30473;DHT22;17263;48.160;11.452;2023-11-22T13:25:28;4.70;99.90
30473;DHT22;17263;48.160;11.452;2023-11-22T13:27:54;4.70;99.90
30473;DHT22;17263;48.160;11.452;2023-11-22T13:30:22;4.50;99.90
30473;DHT22;17263;48.160;11.452;2023-11-22T13:32:52;4.40;99.90
30473;DHT22;17263;48.160;11.452;2023-11-22T13:35:19;4.50;99.90
30473;DHT22;17263;48.160;11.452;2023-11-22T13:37:48;4.50;99.90
30473;DHT22;17263;48.160;11.452;2023-11-22T13:40:16;4.50;99.90
30473;DHT22;17263;48.160;11.452;2023-11-22T13:42:46;4.50;99.90
30473;DHT22;17263;48.160;11.452;2023-11-22T13:45:14;4.60;99.90
30473;DHT22;17263;48.160;11.452;2023-11-22T13:47:44;4.60;99.90
30473;DHT22;17263;48.160;11.452;2023-11-22T13:50:16;4.60;99.90
30473;DHT22;17263;48.160;11.452;2023-11-22T13:52:48;4.60;99.90
30473;DHT22;17263;48.160;11.452;2023-11-22T13:55:15;4.60;99.90
30473;DHT22;17263;48.160;11.452;2023-11-22T13:57:43;4.50;99.90
30473;DHT22;17263;48.160;11.452;2023-11-22T14:00:10;4.50;99.90
30473;DHT22;17263;48.160;11.452;2023-11-22T14:02:48;4.50;99.90
30473;DHT22;17263;48.160;11.452;2023-11-22T14:05:14;4.50;99.90
30473;DHT22;17263;48.160;11.452;2023-11-22T14:07:41;4.40;99.90
30473;DHT22;17263;48.160;11.452;2023-11-22T14:10:08;4.40;99.90
30473;DHT22;17263;48.160;11.452;2023-11-22T14:12:35;4.30;99.90
30473;DHT22;17263;48.160;11.452;2023-11-22T14:15:01;4.30;99.90
30473;DHT22;17263;48.160;11.452;2023-11-22T14:17:30;4.30;99.90
30473;DHT22;17263;48.160;11.452;2023-11-22T14:19:56;4.30;99.90
30473;DHT22;17263;48.160;11.452;2023-11-22T14:22:23;4.40;99.90
30473;DHT22;17263;48.160;11.452;2023-11-22T14:24:50;4.40;99.90
30473;DHT22;17263;48.160;11.452;2023-11-22T14:27:17;4.40;99.90
30473;DHT22;17263;48.160;11.452;2023-11-22T14:29:43;4.30;99.90
30473;DHT22;17263;48.160;11.452;2023-11-22T14:32:13;4.30;99.90
30473;DHT22;17263;48.160;11.452;2023-11-22T14:34:39;4.40;99.90
30473;DHT22;17263;48.160;11.452;2023-11-22T14:37:08;4.30;99.90
30473;DHT22;17263;48.160;11.452;2023-11-22T14:39:34;4.30;99.90
30473;DHT22;17263;48.160;11.452;2023-11-22T14:42:00;4.30;99.90
30473;DHT22;17263;48.160;11.452;2023-11-22T14:44:26;4.20;99.90
30473;DHT22;17263;48.160;11.452;2023-11-22T14:46:52;4.20;99.90
30473;DHT22;17263;48.160;11.452;2023-11-22T14:49:18;4.20;99.90
30473;DHT22;17263;48.160;11.452;2023-11-22T14:51:47;4.20;99.90
30473;DHT22;17263;48.160;11.452;2023-11-22T14:54:13;4.10;99.90
30473;DHT22;17263;48.160;11.452;2023-11-22T14:56:39;4.10;99.90
30473;DHT22;17263;48.160;11.452;2023-11-22T14:59:06;4.00;99.90
30473;DHT22;17263;48.160;11.452;2023-11-22T15:01:32;4.00;99.90
30473;DHT22;17263;48.160;11.452;2023-11-22T15:03:59;4.00;99.90
30473;DHT22;17263;48.160;11.452;2023-11-22T15:06:25;4.00;99.90
30473;DHT22;17263;48.160;11.452;2023-11-22T15:08:51;4.00;99.90
30473;DHT22;17263;48.160;11.452;2023-11-22T15:11:18;4.00;99.90
30473;DHT22;17263;48.160;11.452;2023-11-22T15:13:45;4.00;99.90
30473;DHT22;17263;48.160;11.452;2023-11-22T15:16:11;4.00;99.90
30473;DHT22;17263;48.160;11.452;2023-11-22T15:18:42;4.00;99.90
30473;DHT22;17263;48.160;11.452;2023-11-22T15:21:08;4.00;99.90
30473;DHT22;17263;48.160;11.452;2023-11-22T15:23:34;4.00;99.90
30473;DHT22;17263;48.160;11.452;2023-11-22T15:26:01;3.90;99.90
30473;DHT22;17263;48.160;11.452;2023-11-22T15:28:27;3.90;99.90
30473;DHT22;17263;48.160;11.452;2023-11-22T15:30:53;3.90;99.90
30473;DHT22;17263;48.160;11.452;2023-11-22T15:33:24;3.80;99.90
30473;DHT22;17263;48.160;11.452;2023-11-22T15:35:51;3.80;99.90
30473;DHT22;17263;48.160;11.452;2023-11-22T15:38:17;3.80;99.90
30473;DHT22;17263;48.160;11.452;2023-11-22T15:40:43;3.80;99.90
30473;DHT22;17263;48.160;11.452;2023-11-22T15:43:09;3.80;99.90